Home PIREPS Pireps

Flight SAB2720

  • Submitted By: Carl Hermans
  • Departure Airport: airoport Geneve-Cointrin (LSGG)
  • Arrival Airport: Bruxelles National (EBBR)
  • Aircraft: B737-500 (OO-SAB)
  • Flight Time: 01.18
  • Date Submitted: 29/11/2016
  • Status: Accepted
Flight Details
Gross Revenue:
(120 load / € 0.00 per unit
€ 0.00
Fuel Cost:
(2371 fuel used @ 5.1 / unit)
€ 12,092.10

Additional Log Information:

View Log

Aircraft Used in flight is x737-800_v502 Brussels Airlines
20:30Flaps 3 Selected at 1410ft and 0kts
20:30 Engine 1 Started
20:30 Engine 2 Started
20:30 Engine 3 Started
20:30 Engine 4 Started
20:30 Strobe Lights ON at 1410 AGL
20:30 Navigation Lights ON at 1410 AGL
20:30 Beacon Lights ON at 1410 AGL
20:30 Brakes are On
20:31 Brakes are Released
20:31 Brakes are On
20:31 Brakes are Released
20:31 Brakes are On
20:31 Brakes are Released
20:32 Brakes are On
20:32 Brakes are Released
20:33 You Took off @ 176 Knots and Flaps at Position 3
Departure Weather
LSGG 291920Z 35003KT 9999 FEW015 SCT020 00/M02 Q1031 NOSIGrn
20:33 Landing Gear Up @ 184 Knots and 1390 Feet
20:33Flaps 2 Selected at 2110ft and 227kts
20:33Flaps Retracted at 2160ft and 227kts
20:34 Below 10000 feet you are not allowed to go over 250 knots
20:36 Above FL100 you need to switch of the landing lights
20:37 You exceeded maximum bank angle
21:35Flaps 1 Selected at 3130ft and 213kts
21:35Flaps 3 Selected at 3110ft and 212kts
21:36Flaps 4 Selected at 2850ft and 186kts
21:38Flaps 5 Selected at 2500ft and 156kts
21:38 Landing Gear Down @ 157 Knots and 2480 Feet
21:39Flaps 6 Selected at 2160ft and 156kts
21:39Flaps 7 Selected at 2150ft and 157kts
21:39Flaps 8 Selected at 2110ft and 156kts
21:41 You Landed @ 140 Knots and with -500 Vertical Speed
Arrival Weather
EBBR 292020Z 15003KT CAVOK M01/M04 Q1033 NOSIGrn
21:42 Brakes are On
21:42Flaps 2 Selected at 130ft and 62kts
21:42Flaps Retracted at 130ft and 60kts
21:42 Brakes are Released
21:42 Taxi Lights ON at 130 AGL
21:44 Brakes are On
21:44 Brakes are Released
21:44 Brakes are On
21:44 Brakes are Released
21:46 Brakes are On
21:46 Brakes are Released
21:46 Brakes are On
21:46 Brakes are Released
21:46 Brakes are On
21:46 Brakes are Released
21:47 Brakes are On
21:47 Navigation Lights OFF at 120 AGL
21:47 Taxi Lights OFF at 120 AGL
21:47 Beacon Lights OFF at 120 AGL
21:47 Engine 1 Stoped
21:47 Engine 2 Stoped
21:48 Brussels Bel-Track1.0.0.11

Route Map

Corporate About Us Our Team Vacancies Information Fleet Route Network Rules and Regulations Operations Flight Schedules Event Center Tours Partners IVAO Vatsim Acars dev FSCB

fb Users Online Belgium Marc Claus, Belgium ISMAIL SAIF , Belgium Martin Witters,
3 Pilot(s) and 216 Guest(s) Online
CMS by phpVMS - Design by Crazycreatives.com - Copyright © 2018 - Brussels Airlines Virtual